sensor_id;sensor_type;location;lat;lon;timestamp;temperature;humidity
52075;DHT22;38075;53.172;5.446;2022-09-09T00:01:50;12.90;99.90
52075;DHT22;38075;53.172;5.446;2022-09-09T00:09:46;12.40;99.90
52075;DHT22;38075;53.172;5.446;2022-09-09T00:12:34;12.40;99.90
52075;DHT22;38075;53.172;5.446;2022-09-09T00:18:15;12.30;99.90
52075;DHT22;38075;53.172;5.446;2022-09-09T00:20:49;12.20;99.90
52075;DHT22;38075;53.172;5.446;2022-09-09T00:23:39;12.50;99.90
52075;DHT22;38075;53.172;5.446;2022-09-09T00:26:34;12.70;99.90
52075;DHT22;38075;53.172;5.446;2022-09-09T00:31:37;12.30;99.90
52075;DHT22;38075;53.172;5.446;2022-09-09T00:34:17;12.30;99.90
52075;DHT22;38075;53.172;5.446;2022-09-09T00:36:46;12.70;99.90
52075;DHT22;38075;53.172;5.446;2022-09-09T00:39:45;12.30;99.90
52075;DHT22;38075;53.172;5.446;2022-09-09T00:42:17;12.60;99.90
52075;DHT22;38075;53.172;5.446;2022-09-09T00:47:51;12.00;99.90
52075;DHT22;38075;53.172;5.446;2022-09-09T00:56:10;11.80;99.90
52075;DHT22;38075;53.172;5.446;2022-09-09T00:58:37;11.70;99.90
52075;DHT22;38075;53.172;5.446;2022-09-09T01:01:12;11.80;99.90
52075;DHT22;38075;53.172;5.446;2022-09-09T01:03:52;12.00;99.90
52075;DHT22;38075;53.172;5.446;2022-09-09T01:09:11;12.10;99.90
52075;DHT22;38075;53.172;5.446;2022-09-09T01:12:10;12.10;99.90
52075;DHT22;38075;53.172;5.446;2022-09-09T01:14:51;12.00;99.90
52075;DHT22;38075;53.172;5.446;2022-09-09T01:20:12;12.50;99.90
52075;DHT22;38075;53.172;5.446;2022-09-09T01:25:56;12.00;99.90
52075;DHT22;38075;53.172;5.446;2022-09-09T01:28:28;12.10;99.90
52075;DHT22;38075;53.172;5.446;2022-09-09T01:30:55;12.20;1.00
52075;DHT22;38075;53.172;5.446;2022-09-09T01:33:22;12.10;1.00
52075;DHT22;38075;53.172;5.446;2022-09-09T01:36:11;12.30;1.00
52075;DHT22;38075;53.172;5.446;2022-09-09T01:38:38;12.00;1.00
52075;DHT22;38075;53.172;5.446;2022-09-09T01:41:04;12.20;1.00
52075;DHT22;38075;53.172;5.446;2022-09-09T01:43:30;12.20;1.00
52075;DHT22;38075;53.172;5.446;2022-09-09T01:45:58;12.10;1.00
52075;DHT22;38075;53.172;5.446;2022-09-09T01:48:25;12.10;1.00
52075;DHT22;38075;53.172;5.446;2022-09-09T01:50:51;12.30;1.00
52075;DHT22;38075;53.172;5.446;2022-09-09T01:53:18;11.80;1.00
52075;DHT22;38075;53.172;5.446;2022-09-09T01:55:57;11.80;99.90
52075;DHT22;38075;53.172;5.446;2022-09-09T02:01:29;11.90;1.00
52075;DHT22;38075;53.172;5.446;2022-09-09T02:04:03;12.10;1.00
52075;DHT22;38075;53.172;5.446;2022-09-09T02:06:44;12.50;1.00
52075;DHT22;38075;53.172;5.446;2022-09-09T02:09:12;12.20;1.00
52075;DHT22;38075;53.172;5.446;2022-09-09T02:11:40;12.50;1.00
52075;DHT22;38075;53.172;5.446;2022-09-09T02:14:12;12.60;1.00
52075;DHT22;38075;53.172;5.446;2022-09-09T02:16:40;12.70;1.00
52075;DHT22;38075;53.172;5.446;2022-09-09T02:19:19;12.50;1.00
52075;DHT22;38075;53.172;5.446;2022-09-09T02:21:52;12.40;1.00
52075;DHT22;38075;53.172;5.446;2022-09-09T02:24:19;12.70;1.00
52075;DHT22;38075;53.172;5.446;2022-09-09T02:26:48;12.50;1.00
52075;DHT22;38075;53.172;5.446;2022-09-09T02:29:19;12.50;1.00
52075;DHT22;38075;53.172;5.446;2022-09-09T02:31:47;12.50;1.00
52075;DHT22;38075;53.172;5.446;2022-09-09T02:34:14;12.40;1.00
52075;DHT22;38075;53.172;5.446;2022-09-09T02:36:43;13.10;1.00
52075;DHT22;38075;53.172;5.446;2022-09-09T02:39:11;12.50;1.00
52075;DHT22;38075;53.172;5.446;2022-09-09T02:41:39;13.00;1.00
52075;DHT22;38075;53.172;5.446;2022-09-09T02:44:10;12.50;1.00
52075;DHT22;38075;53.172;5.446;2022-09-09T02:47:03;12.60;1.00
52075;DHT22;38075;53.172;5.446;2022-09-09T02:52:11;12.40;1.00
52075;DHT22;38075;53.172;5.446;2022-09-09T02:54:39;12.40;1.00
52075;DHT22;38075;53.172;5.446;2022-09-09T02:57:11;12.20;1.00
52075;DHT22;38075;53.172;5.446;2022-09-09T02:59:38;12.40;1.00
52075;DHT22;38075;53.172;5.446;2022-09-09T03:02:04;12.20;1.00
52075;DHT22;38075;53.172;5.446;2022-09-09T03:04:30;12.10;1.00
52075;DHT22;38075;53.172;5.446;2022-09-09T03:07:00;12.00;1.00
52075;DHT22;38075;53.172;5.446;2022-09-09T03:09:25;11.90;1.00
52075;DHT22;38075;53.172;5.446;2022-09-09T03:11:52;12.10;1.00
52075;DHT22;38075;53.172;5.446;2022-09-09T03:14:17;11.90;1.00
52075;DHT22;38075;53.172;5.446;2022-09-09T03:16:47;12.00;1.00
52075;DHT22;38075;53.172;5.446;2022-09-09T03:19:12;12.10;1.00
52075;DHT22;38075;53.172;5.446;2022-09-09T03:21:38;12.20;1.00
52075;DHT22;38075;53.172;5.446;2022-09-09T03:24:04;12.10;1.00
52075;DHT22;38075;53.172;5.446;2022-09-09T03:26:30;12.10;1.00
52075;DHT22;38075;53.172;5.446;2022-09-09T03:28:57;12.30;1.00
52075;DHT22;38075;53.172;5.446;2022-09-09T03:31:22;12.00;1.00
52075;DHT22;38075;53.172;5.446;2022-09-09T03:33:48;12.20;1.00
52075;DHT22;38075;53.172;5.446;2022-09-09T03:36:14;12.20;1.00
52075;DHT22;38075;53.172;5.446;2022-09-09T03:38:41;12.20;1.00
52075;DHT22;38075;53.172;5.446;2022-09-09T03:41:06;12.30;1.00
52075;DHT22;38075;53.172;5.446;2022-09-09T03:43:33;12.20;1.00
52075;DHT22;38075;53.172;5.446;2022-09-09T03:45:59;12.70;1.00
52075;DHT22;38075;53.172;5.446;2022-09-09T03:48:26;12.30;1.00
52075;DHT22;38075;53.172;5.446;2022-09-09T03:50:54;12.20;1.00
52075;DHT22;38075;53.172;5.446;2022-09-09T03:53:24;12.10;1.00
52075;DHT22;38075;53.172;5.446;2022-09-09T03:55:52;12.10;1.00
52075;DHT22;38075;53.172;5.446;2022-09-09T03:58:20;11.80;1.00
52075;DHT22;38075;53.172;5.446;2022-09-09T04:01:01;12.20;1.00
52075;DHT22;38075;53.172;5.446;2022-09-09T04:03:27;12.30;1.00
52075;DHT22;38075;53.172;5.446;2022-09-09T04:06:14;12.40;1.00
52075;DHT22;38075;53.172;5.446;2022-09-09T04:08:40;12.20;1.00
52075;DHT22;38075;53.172;5.446;2022-09-09T04:11:07;12.30;1.00
52075;DHT22;38075;53.172;5.446;2022-09-09T04:13:34;12.30;1.00
52075;DHT22;38075;53.172;5.446;2022-09-09T04:16:01;12.20;1.00
52075;DHT22;38075;53.172;5.446;2022-09-09T04:18:28;12.30;1.00
52075;DHT22;38075;53.172;5.446;2022-09-09T04:20:54;12.80;1.00
52075;DHT22;38075;53.172;5.446;2022-09-09T04:23:22;12.80;1.00
52075;DHT22;38075;53.172;5.446;2022-09-09T04:25:51;12.60;1.00
52075;DHT22;38075;53.172;5.446;2022-09-09T04:28:18;12.50;1.00
52075;DHT22;38075;53.172;5.446;2022-09-09T04:30:45;12.50;1.00
52075;DHT22;38075;53.172;5.446;2022-09-09T04:33:12;12.50;1.00
52075;DHT22;38075;53.172;5.446;2022-09-09T04:35:38;12.40;1.00
52075;DHT22;38075;53.172;5.446;2022-09-09T04:38:05;12.80;1.00
52075;DHT22;38075;53.172;5.446;2022-09-09T04:40:33;12.70;1.00
52075;DHT22;38075;53.172;5.446;2022-09-09T04:42:59;12.30;1.00
52075;DHT22;38075;53.172;5.446;2022-09-09T04:45:25;12.50;1.00
52075;DHT22;38075;53.172;5.446;2022-09-09T04:47:52;12.60;1.00
52075;DHT22;38075;53.172;5.446;2022-09-09T04:50:18;12.90;1.00
52075;DHT22;38075;53.172;5.446;2022-09-09T04:52:56;12.40;1.00
52075;DHT22;38075;53.172;5.446;2022-09-09T04:55:24;12.30;1.00
52075;DHT22;38075;53.172;5.446;2022-09-09T04:57:50;12.30;1.00
52075;DHT22;38075;53.172;5.446;2022-09-09T05:00:16;12.70;1.00
52075;DHT22;38075;53.172;5.446;2022-09-09T05:02:42;12.30;1.00
52075;DHT22;38075;53.172;5.446;2022-09-09T05:05:08;12.50;1.00
52075;DHT22;38075;53.172;5.446;2022-09-09T05:07:33;12.30;1.00
52075;DHT22;38075;53.172;5.446;2022-09-09T05:09:59;12.20;1.00
52075;DHT22;38075;53.172;5.446;2022-09-09T05:12:25;12.60;1.00
52075;DHT22;38075;53.172;5.446;2022-09-09T05:14:52;12.40;1.00
52075;DHT22;38075;53.172;5.446;2022-09-09T05:17:17;12.10;1.00
52075;DHT22;38075;53.172;5.446;2022-09-09T05:19:43;12.10;1.00
52075;DHT22;38075;53.172;5.446;2022-09-09T05:22:09;12.60;1.00
52075;DHT22;38075;53.172;5.446;2022-09-09T05:24:36;12.20;1.00
52075;DHT22;38075;53.172;5.446;2022-09-09T05:27:02;12.80;1.00
52075;DHT22;38075;53.172;5.446;2022-09-09T05:29:31;12.40;1.00
52075;DHT22;38075;53.172;5.446;2022-09-09T05:31:59;12.50;1.00
52075;DHT22;38075;53.172;5.446;2022-09-09T05:34:24;12.60;1.00
52075;DHT22;38075;53.172;5.446;2022-09-09T05:36:56;12.70;1.00
52075;DHT22;38075;53.172;5.446;2022-09-09T05:39:22;12.70;1.00
52075;DHT22;38075;53.172;5.446;2022-09-09T05:41:47;12.90;1.00
52075;DHT22;38075;53.172;5.446;2022-09-09T05:44:13;13.40;1.00
52075;DHT22;38075;53.172;5.446;2022-09-09T05:46:39;13.10;1.00
52075;DHT22;38075;53.172;5.446;2022-09-09T05:49:05;13.20;1.00
52075;DHT22;38075;53.172;5.446;2022-09-09T05:52:00;13.30;1.00
52075;DHT22;38075;53.172;5.446;2022-09-09T05:54:26;13.40;1.00
52075;DHT22;38075;53.172;5.446;2022-09-09T05:56:51;13.50;1.00
52075;DHT22;38075;53.172;5.446;2022-09-09T05:59:19;13.70;1.00
52075;DHT22;38075;53.172;5.446;2022-09-09T06:01:44;13.70;1.00
52075;DHT22;38075;53.172;5.446;2022-09-09T06:04:10;13.80;1.00
52075;DHT22;38075;53.172;5.446;2022-09-09T06:06:38;13.70;1.00
52075;DHT22;38075;53.172;5.446;2022-09-09T06:09:06;13.60;1.00
52075;DHT22;38075;53.172;5.446;2022-09-09T06:11:36;13.70;1.00
52075;DHT22;38075;53.172;5.446;2022-09-09T06:14:02;13.70;1.00
52075;DHT22;38075;53.172;5.446;2022-09-09T06:16:29;13.70;1.00
52075;DHT22;38075;53.172;5.446;2022-09-09T06:18:56;13.70;1.00
52075;DHT22;38075;53.172;5.446;2022-09-09T06:21:29;13.80;1.00
52075;DHT22;38075;53.172;5.446;2022-09-09T06:23:55;14.20;1.00
52075;DHT22;38075;53.172;5.446;2022-09-09T06:28:52;14.20;1.00
52075;DHT22;38075;53.172;5.446;2022-09-09T06:31:21;14.00;1.00
52075;DHT22;38075;53.172;5.446;2022-09-09T06:33:48;14.40;1.00
52075;DHT22;38075;53.172;5.446;2022-09-09T06:36:19;14.10;1.00
52075;DHT22;38075;53.172;5.446;2022-09-09T06:38:46;14.10;1.00
52075;DHT22;38075;53.172;5.446;2022-09-09T06:41:14;14.20;1.00
52075;DHT22;38075;53.172;5.446;2022-09-09T06:43:40;15.00;1.00
52075;DHT22;38075;53.172;5.446;2022-09-09T06:46:11;14.60;1.00
52075;DHT22;38075;53.172;5.446;2022-09-09T06:48:38;14.50;1.00
52075;DHT22;38075;53.172;5.446;2022-09-09T06:53:38;14.60;1.00
52075;DHT22;38075;53.172;5.446;2022-09-09T06:58:36;14.90;1.00
52075;DHT22;38075;53.172;5.446;2022-09-09T07:01:06;14.70;1.00
52075;DHT22;38075;53.172;5.446;2022-09-09T07:08:54;15.30;1.00
52075;DHT22;38075;53.172;5.446;2022-09-09T07:11:21;15.40;1.00
52075;DHT22;38075;53.172;5.446;2022-09-09T07:13:48;15.60;1.00
52075;DHT22;38075;53.172;5.446;2022-09-09T07:16:16;15.90;1.00
52075;DHT22;38075;53.172;5.446;2022-09-09T07:18:43;15.90;1.00
52075;DHT22;38075;53.172;5.446;2022-09-09T07:21:10;16.00;99.90
52075;DHT22;38075;53.172;5.446;2022-09-09T07:23:37;16.50;99.90
52075;DHT22;38075;53.172;5.446;2022-09-09T07:26:11;15.90;99.90
52075;DHT22;38075;53.172;5.446;2022-09-09T07:28:38;16.00;99.90
52075;DHT22;38075;53.172;5.446;2022-09-09T07:31:05;16.10;99.90
52075;DHT22;38075;53.172;5.446;2022-09-09T07:33:33;16.10;99.90
52075;DHT22;38075;53.172;5.446;2022-09-09T07:36:05;16.30;99.90
52075;DHT22;38075;53.172;5.446;2022-09-09T07:38:37;16.30;99.90
52075;DHT22;38075;53.172;5.446;2022-09-09T07:41:07;16.50;99.90
52075;DHT22;38075;53.172;5.446;2022-09-09T07:43:38;16.50;99.90
52075;DHT22;38075;53.172;5.446;2022-09-09T07:46:14;16.70;99.90
52075;DHT22;38075;53.172;5.446;2022-09-09T07:48:51;16.60;99.90
52075;DHT22;38075;53.172;5.446;2022-09-09T07:51:25;16.50;99.90
52075;DHT22;38075;53.172;5.446;2022-09-09T07:54:03;16.50;99.90
52075;DHT22;38075;53.172;5.446;2022-09-09T07:56:41;17.00;99.90
52075;DHT22;38075;53.172;5.446;2022-09-09T07:59:07;16.60;99.90
52075;DHT22;38075;53.172;5.446;2022-09-09T08:01:47;17.10;99.90
52075;DHT22;38075;53.172;5.446;2022-09-09T08:04:16;16.90;99.90
52075;DHT22;38075;53.172;5.446;2022-09-09T08:06:51;17.00;99.90
52075;DHT22;38075;53.172;5.446;2022-09-09T08:09:18;17.00;99.90
52075;DHT22;38075;53.172;5.446;2022-09-09T08:11:47;17.00;99.90
52075;DHT22;38075;53.172;5.446;2022-09-09T08:14:13;17.10;99.90
52075;DHT22;38075;53.172;5.446;2022-09-09T08:16:45;17.20;99.90
52075;DHT22;38075;53.172;5.446;2022-09-09T08:19:11;17.30;99.90
52075;DHT22;38075;53.172;5.446;2022-09-09T08:21:38;17.30;99.90
52075;DHT22;38075;53.172;5.446;2022-09-09T08:24:06;17.40;99.90
52075;DHT22;38075;53.172;5.446;2022-09-09T08:26:34;17.50;99.90
52075;DHT22;38075;53.172;5.446;2022-09-09T08:29:01;17.50;99.90
52075;DHT22;38075;53.172;5.446;2022-09-09T08:31:35;17.60;99.90
52075;DHT22;38075;53.172;5.446;2022-09-09T08:34:05;17.50;99.90
52075;DHT22;38075;53.172;5.446;2022-09-09T08:36:43;17.30;99.90
52075;DHT22;38075;53.172;5.446;2022-09-09T08:39:10;17.10;99.90
52075;DHT22;38075;53.172;5.446;2022-09-09T08:51:56;17.30;99.90
52075;DHT22;38075;53.172;5.446;2022-09-09T08:54:31;17.30;99.90
52075;DHT22;38075;53.172;5.446;2022-09-09T08:56:58;17.10;99.90
52075;DHT22;38075;53.172;5.446;2022-09-09T08:59:24;17.10;99.90
52075;DHT22;38075;53.172;5.446;2022-09-09T09:10:46;17.20;99.90
52075;DHT22;38075;53.172;5.446;2022-09-09T09:13:47;17.30;99.90
52075;DHT22;38075;53.172;5.446;2022-09-09T09:16:38;17.60;99.90
52075;DHT22;38075;53.172;5.446;2022-09-09T09:19:05;17.90;99.90
52075;DHT22;38075;53.172;5.446;2022-09-09T09:21:57;18.30;99.90
52075;DHT22;38075;53.172;5.446;2022-09-09T09:24:52;18.60;99.90
52075;DHT22;38075;53.172;5.446;2022-09-09T09:27:33;18.70;99.90
52075;DHT22;38075;53.172;5.446;2022-09-09T09:30:13;19.10;99.90
52075;DHT22;38075;53.172;5.446;2022-09-09T09:32:42;19.10;99.90
52075;DHT22;38075;53.172;5.446;2022-09-09T09:35:12;19.00;99.90
52075;DHT22;38075;53.172;5.446;2022-09-09T09:37:40;19.40;99.90
52075;DHT22;38075;53.172;5.446;2022-09-09T09:40:24;19.70;99.90
52075;DHT22;38075;53.172;5.446;2022-09-09T09:42:58;19.50;99.90
52075;DHT22;38075;53.172;5.446;2022-09-09T09:45:43;19.90;99.90
52075;DHT22;38075;53.172;5.446;2022-09-09T09:48:13;20.30;99.90
52075;DHT22;38075;53.172;5.446;2022-09-09T09:50:56;19.90;99.90
52075;DHT22;38075;53.172;5.446;2022-09-09T09:53:30;19.60;99.90
52075;DHT22;38075;53.172;5.446;2022-09-09T09:56:02;19.80;99.90
52075;DHT22;38075;53.172;5.446;2022-09-09T09:58:31;19.60;99.90
52075;DHT22;38075;53.172;5.446;2022-09-09T10:00:59;19.00;99.90
52075;DHT22;38075;53.172;5.446;2022-09-09T10:03:30;18.90;99.90
52075;DHT22;38075;53.172;5.446;2022-09-09T10:05:57;19.30;99.90
52075;DHT22;38075;53.172;5.446;2022-09-09T10:08:27;19.50;99.90
52075;DHT22;38075;53.172;5.446;2022-09-09T10:11:12;19.50;99.90
52075;DHT22;38075;53.172;5.446;2022-09-09T10:16:56;19.40;99.90
52075;DHT22;38075;53.172;5.446;2022-09-09T10:19:36;19.60;99.90
52075;DHT22;38075;53.172;5.446;2022-09-09T10:22:26;19.60;99.90
52075;DHT22;38075;53.172;5.446;2022-09-09T10:27:38;19.00;99.90
52075;DHT22;38075;53.172;5.446;2022-09-09T10:33:16;19.10;99.90
52075;DHT22;38075;53.172;5.446;2022-09-09T10:35:49;19.00;99.90
52075;DHT22;38075;53.172;5.446;2022-09-09T10:38:18;19.00;99.90
52075;DHT22;38075;53.172;5.446;2022-09-09T10:52:01;19.80;99.90
52075;DHT22;38075;53.172;5.446;2022-09-09T10:54:57;19.90;99.90
52075;DHT22;38075;53.172;5.446;2022-09-09T10:57:36;19.70;99.90
52075;DHT22;38075;53.172;5.446;2022-09-09T11:00:18;19.70;99.90
52075;DHT22;38075;53.172;5.446;2022-09-09T11:03:01;19.30;99.90
52075;DHT22;38075;53.172;5.446;2022-09-09T11:05:42;19.10;99.90
52075;DHT22;38075;53.172;5.446;2022-09-09T11:08:24;19.00;99.90
52075;DHT22;38075;53.172;5.446;2022-09-09T11:16:03;18.50;99.90
52075;DHT22;38075;53.172;5.446;2022-09-09T11:18:31;18.90;99.90
52075;DHT22;38075;53.172;5.446;2022-09-09T11:21:06;19.60;99.90
52075;DHT22;38075;53.172;5.446;2022-09-09T11:23:40;19.80;99.90
52075;DHT22;38075;53.172;5.446;2022-09-09T11:26:12;19.50;99.90
52075;DHT22;38075;53.172;5.446;2022-09-09T11:29:10;19.40;99.90
52075;DHT22;38075;53.172;5.446;2022-09-09T11:35:02;18.90;99.90
52075;DHT22;38075;53.172;5.446;2022-09-09T11:40:33;19.00;99.90
52075;DHT22;38075;53.172;5.446;2022-09-09T11:43:05;19.10;99.90
52075;DHT22;38075;53.172;5.446;2022-09-09T11:45:35;19.20;99.90
52075;DHT22;38075;53.172;5.446;2022-09-09T11:48:02;19.20;99.90
52075;DHT22;38075;53.172;5.446;2022-09-09T11:50:35;19.00;99.90
52075;DHT22;38075;53.172;5.446;2022-09-09T11:55:39;19.40;99.90
52075;DHT22;38075;53.172;5.446;2022-09-09T11:58:15;19.60;99.90
52075;DHT22;38075;53.172;5.446;2022-09-09T12:00:46;19.40;99.90
52075;DHT22;38075;53.172;5.446;2022-09-09T12:03:46;19.30;99.90
52075;DHT22;38075;53.172;5.446;2022-09-09T12:06:25;19.10;99.90
52075;DHT22;38075;53.172;5.446;2022-09-09T12:09:09;18.90;99.90
52075;DHT22;38075;53.172;5.446;2022-09-09T12:11:38;18.80;99.90
52075;DHT22;38075;53.172;5.446;2022-09-09T12:14:04;18.80;99.90
52075;DHT22;38075;53.172;5.446;2022-09-09T12:16:33;18.60;99.90
52075;DHT22;38075;53.172;5.446;2022-09-09T12:19:25;18.40;99.90
52075;DHT22;38075;53.172;5.446;2022-09-09T12:22:01;18.00;99.90
52075;DHT22;38075;53.172;5.446;2022-09-09T12:24:58;18.10;99.90
52075;DHT22;38075;53.172;5.446;2022-09-09T12:27:28;18.60;99.90
52075;DHT22;38075;53.172;5.446;2022-09-09T12:32:24;18.80;99.90
52075;DHT22;38075;53.172;5.446;2022-09-09T12:34:58;18.80;99.90
52075;DHT22;38075;53.172;5.446;2022-09-09T12:37:38;18.70;99.90
52075;DHT22;38075;53.172;5.446;2022-09-09T12:42:47;19.20;99.90
52075;DHT22;38075;53.172;5.446;2022-09-09T12:45:19;19.20;99.90
52075;DHT22;38075;53.172;5.446;2022-09-09T12:47:53;19.00;99.90
52075;DHT22;38075;53.172;5.446;2022-09-09T12:50:23;18.90;99.90
52075;DHT22;38075;53.172;5.446;2022-09-09T12:52:55;18.90;99.90
52075;DHT22;38075;53.172;5.446;2022-09-09T12:55:32;19.10;99.90
52075;DHT22;38075;53.172;5.446;2022-09-09T12:57:59;19.10;99.90
52075;DHT22;38075;53.172;5.446;2022-09-09T13:00:26;19.30;99.90
52075;DHT22;38075;53.172;5.446;2022-09-09T13:02:58;19.20;99.90
52075;DHT22;38075;53.172;5.446;2022-09-09T13:05:45;19.30;99.90
52075;DHT22;38075;53.172;5.446;2022-09-09T13:08:13;19.80;99.90
52075;DHT22;38075;53.172;5.446;2022-09-09T13:11:02;20.20;99.90
52075;DHT22;38075;53.172;5.446;2022-09-09T13:13:35;20.20;99.90
52075;DHT22;38075;53.172;5.446;2022-09-09T13:16:03;19.80;99.90
52075;DHT22;38075;53.172;5.446;2022-09-09T13:18:40;19.80;99.90
52075;DHT22;38075;53.172;5.446;2022-09-09T13:21:07;20.20;99.90
52075;DHT22;38075;53.172;5.446;2022-09-09T13:23:37;20.60;99.90
52075;DHT22;38075;53.172;5.446;2022-09-09T13:26:06;21.00;99.90
52075;DHT22;38075;53.172;5.446;2022-09-09T13:28:33;20.70;99.90
52075;DHT22;38075;53.172;5.446;2022-09-09T13:31:05;20.30;99.90
52075;DHT22;38075;53.172;5.446;2022-09-09T13:33:39;20.20;99.90
52075;DHT22;38075;53.172;5.446;2022-09-09T13:36:10;20.20;99.90
52075;DHT22;38075;53.172;5.446;2022-09-09T13:38:37;20.70;99.90
52075;DHT22;38075;53.172;5.446;2022-09-09T13:41:05;20.90;99.90
52075;DHT22;38075;53.172;5.446;2022-09-09T13:43:45;20.90;99.90
52075;DHT22;38075;53.172;5.446;2022-09-09T13:49:02;20.70;99.90
52075;DHT22;38075;53.172;5.446;2022-09-09T13:51:39;20.60;99.90
52075;DHT22;38075;53.172;5.446;2022-09-09T13:54:08;21.00;99.90
52075;DHT22;38075;53.172;5.446;2022-09-09T13:56:35;20.40;99.90
52075;DHT22;38075;53.172;5.446;2022-09-09T13:59:02;20.20;99.90
52075;DHT22;38075;53.172;5.446;2022-09-09T14:01:28;20.20;99.90
52075;DHT22;38075;53.172;5.446;2022-09-09T14:03:54;20.10;99.90
52075;DHT22;38075;53.172;5.446;2022-09-09T14:06:20;20.00;99.90
52075;DHT22;38075;53.172;5.446;2022-09-09T14:08:48;20.10;99.90
52075;DHT22;38075;53.172;5.446;2022-09-09T14:11:15;20.10;99.90
52075;DHT22;38075;53.172;5.446;2022-09-09T14:13:41;20.00;99.90
52075;DHT22;38075;53.172;5.446;2022-09-09T14:16:06;19.90;99.90
52075;DHT22;38075;53.172;5.446;2022-09-09T14:18:32;19.80;99.90
52075;DHT22;38075;53.172;5.446;2022-09-09T14:20:59;19.70;99.90
52075;DHT22;38075;53.172;5.446;2022-09-09T14:23:25;19.70;99.90
52075;DHT22;38075;53.172;5.446;2022-09-09T14:25:51;19.20;99.90
52075;DHT22;38075;53.172;5.446;2022-09-09T14:28:17;19.00;99.90
52075;DHT22;38075;53.172;5.446;2022-09-09T14:30:43;18.80;99.90
52075;DHT22;38075;53.172;5.446;2022-09-09T14:33:14;18.60;99.90
52075;DHT22;38075;53.172;5.446;2022-09-09T14:35:41;18.50;99.90
52075;DHT22;38075;53.172;5.446;2022-09-09T14:38:07;18.20;99.90
52075;DHT22;38075;53.172;5.446;2022-09-09T14:40:35;17.80;99.90
52075;DHT22;38075;53.172;5.446;2022-09-09T14:43:01;17.60;99.90
52075;DHT22;38075;53.172;5.446;2022-09-09T14:45:30;17.40;99.90
52075;DHT22;38075;53.172;5.446;2022-09-09T14:47:56;17.20;99.90
52075;DHT22;38075;53.172;5.446;2022-09-09T14:50:23;17.10;99.90
52075;DHT22;38075;53.172;5.446;2022-09-09T14:52:49;17.10;99.90
52075;DHT22;38075;53.172;5.446;2022-09-09T14:55:15;17.00;99.90
52075;DHT22;38075;53.172;5.446;2022-09-09T14:57:41;17.10;99.90
52075;DHT22;38075;53.172;5.446;2022-09-09T15:00:10;17.20;99.90
52075;DHT22;38075;53.172;5.446;2022-09-09T15:02:39;17.50;99.90
52075;DHT22;38075;53.172;5.446;2022-09-09T15:05:05;17.70;99.90
52075;DHT22;38075;53.172;5.446;2022-09-09T15:07:31;17.90;99.90
52075;DHT22;38075;53.172;5.446;2022-09-09T15:09:57;18.10;99.90
52075;DHT22;38075;53.172;5.446;2022-09-09T15:12:23;18.10;99.90
52075;DHT22;38075;53.172;5.446;2022-09-09T15:14:49;18.10;99.90
52075;DHT22;38075;53.172;5.446;2022-09-09T15:17:16;18.30;99.90
52075;DHT22;38075;53.172;5.446;2022-09-09T15:19:42;18.00;99.90
52075;DHT22;38075;53.172;5.446;2022-09-09T15:22:08;17.80;99.90
52075;DHT22;38075;53.172;5.446;2022-09-09T15:24:34;17.90;99.90
52075;DHT22;38075;53.172;5.446;2022-09-09T15:27:01;17.70;99.90
52075;DHT22;38075;53.172;5.446;2022-09-09T15:29:27;17.50;99.90
52075;DHT22;38075;53.172;5.446;2022-09-09T15:31:55;17.80;99.90
52075;DHT22;38075;53.172;5.446;2022-09-09T15:34:21;17.30;99.90
52075;DHT22;38075;53.172;5.446;2022-09-09T15:36:47;17.20;99.90
52075;DHT22;38075;53.172;5.446;2022-09-09T15:39:17;17.30;99.90
52075;DHT22;38075;53.172;5.446;2022-09-09T15:41:44;17.20;99.90
52075;DHT22;38075;53.172;5.446;2022-09-09T15:44:10;17.30;99.90
52075;DHT22;38075;53.172;5.446;2022-09-09T15:46:45;17.40;99.90
52075;DHT22;38075;53.172;5.446;2022-09-09T15:49:13;17.40;99.90
52075;DHT22;38075;53.172;5.446;2022-09-09T15:51:45;17.60;99.90
52075;DHT22;38075;53.172;5.446;2022-09-09T15:54:11;17.80;99.90
52075;DHT22;38075;53.172;5.446;2022-09-09T15:56:37;17.90;99.90
52075;DHT22;38075;53.172;5.446;2022-09-09T15:59:03;18.00;99.90
52075;DHT22;38075;53.172;5.446;2022-09-09T16:01:31;18.10;99.90
52075;DHT22;38075;53.172;5.446;2022-09-09T16:03:58;18.30;99.90
52075;DHT22;38075;53.172;5.446;2022-09-09T16:06:25;18.40;99.90
52075;DHT22;38075;53.172;5.446;2022-09-09T16:08:52;18.40;99.90
52075;DHT22;38075;53.172;5.446;2022-09-09T16:11:21;18.10;99.90
52075;DHT22;38075;53.172;5.446;2022-09-09T16:13:48;18.00;99.90
52075;DHT22;38075;53.172;5.446;2022-09-09T16:16:17;17.90;99.90
52075;DHT22;38075;53.172;5.446;2022-09-09T16:18:46;17.90;99.90
52075;DHT22;38075;53.172;5.446;2022-09-09T16:21:28;17.90;99.90
52075;DHT22;38075;53.172;5.446;2022-09-09T16:23:58;17.90;99.90
52075;DHT22;38075;53.172;5.446;2022-09-09T16:26:32;18.00;99.90
52075;DHT22;38075;53.172;5.446;2022-09-09T16:28:59;18.10;99.90
52075;DHT22;38075;53.172;5.446;2022-09-09T16:31:26;18.00;99.90
52075;DHT22;38075;53.172;5.446;2022-09-09T16:33:55;18.00;99.90
52075;DHT22;38075;53.172;5.446;2022-09-09T16:36:26;18.10;99.90
52075;DHT22;38075;53.172;5.446;2022-09-09T16:39:00;18.20;99.90
52075;DHT22;38075;53.172;5.446;2022-09-09T16:41:27;18.10;99.90
52075;DHT22;38075;53.172;5.446;2022-09-09T16:43:55;18.00;99.90
52075;DHT22;38075;53.172;5.446;2022-09-09T16:46:22;18.00;99.90
52075;DHT22;38075;53.172;5.446;2022-09-09T16:48:48;18.30;99.90
52075;DHT22;38075;53.172;5.446;2022-09-09T16:51:22;18.00;99.90
52075;DHT22;38075;53.172;5.446;2022-09-09T16:53:53;18.00;99.90
52075;DHT22;38075;53.172;5.446;2022-09-09T16:56:23;18.00;99.90
52075;DHT22;38075;53.172;5.446;2022-09-09T16:58:55;17.90;99.90
52075;DHT22;38075;53.172;5.446;2022-09-09T17:01:22;17.80;99.90
52075;DHT22;38075;53.172;5.446;2022-09-09T17:03:53;17.70;99.90
52075;DHT22;38075;53.172;5.446;2022-09-09T17:06:19;17.70;99.90
52075;DHT22;38075;53.172;5.446;2022-09-09T17:08:44;17.70;99.90
52075;DHT22;38075;53.172;5.446;2022-09-09T17:11:15;17.60;99.90
52075;DHT22;38075;53.172;5.446;2022-09-09T17:13:42;17.60;99.90
52075;DHT22;38075;53.172;5.446;2022-09-09T17:16:09;17.50;99.90
52075;DHT22;38075;53.172;5.446;2022-09-09T17:18:35;17.40;99.90
52075;DHT22;38075;53.172;5.446;2022-09-09T17:21:06;17.30;99.90
52075;DHT22;38075;53.172;5.446;2022-09-09T17:23:32;17.30;99.90
52075;DHT22;38075;53.172;5.446;2022-09-09T17:25:59;17.20;99.90
52075;DHT22;38075;53.172;5.446;2022-09-09T17:28:26;17.20;99.90
52075;DHT22;38075;53.172;5.446;2022-09-09T17:30:57;17.20;99.90
52075;DHT22;38075;53.172;5.446;2022-09-09T17:33:26;17.10;99.90
52075;DHT22;38075;53.172;5.446;2022-09-09T17:35:55;17.00;99.90
52075;DHT22;38075;53.172;5.446;2022-09-09T17:38:21;16.90;99.90
52075;DHT22;38075;53.172;5.446;2022-09-09T17:40:47;16.80;99.90
52075;DHT22;38075;53.172;5.446;2022-09-09T17:43:13;16.70;99.90
52075;DHT22;38075;53.172;5.446;2022-09-09T17:45:39;16.70;99.90